YBY weather

Bonnyville Airport
Bonnyville, Alberta, Canada

Public forecast

Using degrees Celsius for public forecast. Weather courtesy of forecast.io.

Closest aviation weather report (METAR) to Bonnyville Airport

Closest report is CFB Cold Lake, 17.4 nm (32.1 km) ENE. Retrieved 2019/10/21 01:00 UTC (7 minutes ago):

CYOD 210100Z 28002KT 15SM BKN040 BKN120 02/00 A2984 RMK SC5AC2 SLP130

Closest aviation forecast (TAF) to Bonnyville Airport

Closest forecast is CFB Cold Lake, 17.4 nm (32.1 km) ENE. Retrieved 2019-10-21 00:35 UTC (32 minutes ago):

TAF CYOD 202330Z 2100/2124 32005KT P6SM FEW020 BKN040 OVC080 TEMPO 2100/2102 P6SM -SHRASN BKN020 OVC030 FM210200 VRB03KT P6SM FEW020 BKN030 TEMPO 2102/2109 BKN020 OVC030 FM210900 VRB03KT P6SM SCT010 PROB30 2109/2114 3/4SM BR FM211700 11008KT P6SM SCT070 BKN140 FM212200 11008KT P6SM -SHRA SCT030 BKN060 OVC140 RMK NXT FCST BY 210600Z